Time;durP1;ratioP1;P1;durP2;ratioP2;P2;SDS_P1;SDS_P2;PMS_P1;PMS_P2;Temp;Humidity;BMP_temperature;BMP_pressure;BME280_temperature;BME280_humidity;BME280_pressure;Samples;Min_cycle;Max_cycle;Signal;HPM_P1;HPM_P2
2024/04/01 00:02:33;;;;;;;55.30;29.30;;;9.90;99.90;;;;;;6218307;28;20050;-78
2024/04/01 00:05:33;;;;;;;59.05;30.92;;;9.70;99.90;;;;;;6178804;28;20056;-78
2024/04/01 00:08:34;;;;;;;56.92;29.95;;;9.80;99.90;;;;;;6217632;28;20424;-78
2024/04/01 00:11:34;;;;;;;58.65;30.48;;;9.70;99.90;;;;;;6194839;28;20055;-78
2024/04/01 00:14:35;;;;;;;60.97;31.20;;;9.60;99.90;;;;;;6198687;28;20082;-78
2024/04/01 00:17:36;;;;;;;59.40;30.05;;;9.60;99.90;;;;;;6216921;28;20424;-78
2024/04/01 00:20:36;;;;;;;57.80;30.08;;;9.60;99.90;;;;;;6194310;28;20058;-78
2024/04/01 00:23:37;;;;;;;59.50;28.52;;;9.50;99.90;;;;;;6217478;28;20060;-78
2024/04/01 00:26:37;;;;;;;36.72;18.63;;;9.50;99.90;;;;;;6194322;28;20062;-78
2024/04/01 00:29:38;;;;;;;32.90;15.82;;;9.50;99.90;;;;;;6203269;28;20054;-78
2024/04/01 00:32:39;;;;;;;23.50;11.75;;;9.60;99.90;;;;;;6217674;28;20064;-78
2024/04/01 00:35:39;;;;;;;20.50;9.80;;;9.60;99.90;;;;;;6194019;28;20054;-78
2024/04/01 00:38:40;;;;;;;14.60;7.47;;;9.70;99.90;;;;;;6217539;28;20136;-78
2024/04/01 00:41:41;;;;;;;13.77;7.03;;;9.70;99.90;;;;;;6194010;28;20651;-77
2024/04/01 00:44:41;;;;;;;11.27;5.60;;;9.70;99.90;;;;;;6190712;28;20066;-78
2024/04/01 00:47:42;;;;;;;9.30;5.22;;;9.70;99.90;;;;;;6177492;28;20062;-78
2024/04/01 00:50:43;;;;;;;8.18;4.13;;;9.70;99.90;;;;;;6216934;28;20656;-77
2024/04/01 00:53:43;;;;;;;10.02;3.75;;;9.80;99.90;;;;;;6193972;28;20054;-78
2024/04/01 00:56:44;;;;;;;6.93;2.95;;;9.80;99.90;;;;;;6217726;28;20064;-77
2024/04/01 00:59:44;;;;;;;5.25;2.65;;;9.80;99.90;;;;;;6203996;28;20418;-77
2024/04/01 01:02:45;;;;;;;8.07;3.17;;;9.80;99.90;;;;;;6194374;28;20064;-77
2024/04/01 01:05:46;;;;;;;6.50;2.85;;;9.80;99.90;;;;;;6216699;28;20089;-77
2024/04/01 01:08:47;;;;;;;7.43;2.90;;;9.70;99.90;;;;;;6193819;28;20065;-78
2024/04/01 01:11:47;;;;;;;8.50;3.70;;;9.70;99.90;;;;;;6217104;28;20058;-77
2024/04/01 01:14:48;;;;;;;10.23;4.28;;;9.80;99.90;;;;;;6208501;28;20085;-78
2024/04/01 01:17:49;;;;;;;8.93;3.78;;;9.80;99.90;;;;;;6193937;28;20062;-76
2024/04/01 01:20:49;;;;;;;9.35;4.10;;;9.70;99.90;;;;;;6216599;28;20128;-77
2024/04/01 01:23:50;;;;;;;10.73;4.53;;;9.70;99.90;;;;;;6177970;28;20099;-76
2024/04/01 01:26:50;;;;;;;8.43;3.88;;;9.70;99.90;;;;;;6216931;28;20062;-77
2024/04/01 01:29:51;;;;;;;8.35;4.15;;;9.70;99.90;;;;;;6175567;28;20651;-76
2024/04/01 01:32:52;;;;;;;10.07;5.10;;;9.70;99.90;;;;;;6221121;28;20057;-76
2024/04/01 01:35:52;;;;;;;13.23;5.13;;;9.70;99.90;;;;;;6198386;28;20055;-79
2024/04/01 01:38:53;;;;;;;9.93;5.28;;;9.70;99.90;;;;;;6221157;28;20069;-77
2024/04/01 01:41:54;;;;;;;10.48;4.93;;;9.60;99.90;;;;;;6182029;28;20065;-79
2024/04/01 01:44:54;;;;;;;11.90;5.80;;;9.60;99.90;;;;;;6198302;28;20062;-76
2024/04/01 01:47:55;;;;;;;12.73;5.70;;;9.50;99.90;;;;;;6204468;28;20053;-77
2024/04/01 01:50:56;;;;;;;13.00;6.10;;;9.40;99.90;;;;;;6182128;28;20054;-76
2024/04/01 01:53:57;;;;;;;15.70;5.85;;;9.40;99.90;;;;;;6204901;28;20525;-77
2024/04/01 01:56:58;;;;;;;10.95;5.20;;;9.30;99.90;;;;;;6197791;28;20418;-76
2024/04/01 01:59:58;;;;;;;9.65;4.38;;;9.20;99.90;;;;;;6213416;28;20058;-77
2024/04/01 02:02:59;;;;;;;9.48;3.95;;;9.10;99.90;;;;;;6221141;28;20049;-77
2024/04/01 02:05:59;;;;;;;8.85;3.70;;;9.10;99.90;;;;;;6194913;28;20039;-77
2024/04/01 02:09:00;;;;;;;6.22;3.28;;;9.00;99.90;;;;;;6197144;28;20062;-77
2024/04/01 02:12:01;;;;;;;8.15;3.17;;;8.90;99.90;;;;;;6220694;28;20061;-77
2024/04/01 02:15:01;;;;;;;7.38;3.10;;;8.90;99.90;;;;;;6175803;28;20421;-77
2024/04/01 02:18:03;;;;;;;8.32;2.88;;;8.80;99.90;;;;;;6204206;28;20068;-77
2024/04/01 02:21:04;;;;;;;5.85;2.50;;;8.70;99.90;;;;;;6197307;28;20061;-77
2024/04/01 02:24:05;;;;;;;5.50;2.50;;;8.60;99.90;;;;;;6220779;28;20136;-77
2024/04/01 02:27:05;;;;;;;5.90;2.30;;;8.60;99.90;;;;;;6197051;28;20061;-77
2024/04/01 02:30:06;;;;;;;4.10;1.88;;;8.60;99.90;;;;;;6215002;28;20093;-78
2024/04/01 02:33:07;;;;;;;3.85;1.98;;;8.50;99.90;;;;;;6196526;28;20066;-77
2024/04/01 02:36:07;;;;;;;3.17;1.40;;;8.50;99.90;;;;;;6220199;28;20049;-78
2024/04/01 02:39:16;;;;;;;3.20;1.48;;;8.40;99.90;;;;;;6195097;28;20066;-77
2024/04/01 02:42:17;;;;;;;3.30;1.38;;;8.30;99.90;;;;;;6195509;28;20062;-77
2024/04/01 02:45:17;;;;;;;3.53;1.30;;;8.30;99.90;;;;;;6198212;28;20425;-78
2024/04/01 02:48:18;;;;;;;2.95;1.20;;;8.30;99.90;;;;;;6180236;28;20502;-78
2024/04/01 02:51:18;;;;;;;3.00;1.17;;;8.30;99.90;;;;;;6219878;28;20058;-77
2024/04/01 02:54:20;;;;;;;3.17;1.10;;;8.30;99.90;;;;;;6197095;28;20107;-78
2024/04/01 02:57:21;;;;;;;3.28;1.10;;;8.40;99.90;;;;;;6219879;28;20068;-77
2024/04/01 03:00:22;;;;;;;2.30;1.00;;;8.50;99.90;;;;;;6170339;28;20050;-78
2024/04/01 03:03:22;;;;;;;2.00;0.80;;;8.60;99.90;;;;;;6218934;28;20433;-77
2024/04/01 03:06:23;;;;;;;1.90;0.80;;;8.60;99.90;;;;;;6196210;28;20058;-78
2024/04/01 03:09:23;;;;;;;2.13;0.80;;;8.70;99.90;;;;;;6203056;28;20057;-78
2024/04/01 03:12:25;;;;;;;2.03;0.80;;;8.70;99.90;;;;;;6195871;28;20525;-78
2024/04/01 03:15:25;;;;;;;1.33;0.60;;;8.70;99.90;;;;;;6197749;28;20069;-78
2024/04/01 03:18:26;;;;;;;2.30;0.77;;;8.70;99.90;;;;;;6196348;28;20076;-78
2024/04/01 03:21:27;;;;;;;2.75;0.88;;;8.80;99.90;;;;;;6219456;28;20539;-78
2024/04/01 03:24:27;;;;;;;1.80;0.60;;;8.70;99.90;;;;;;6196179;28;20069;-77
2024/04/01 03:27:28;;;;;;;2.28;0.60;;;8.70;99.90;;;;;;6218564;28;20069;-78
2024/04/01 03:30:28;;;;;;;2.30;0.82;;;8.60;99.90;;;;;;6190675;28;20054;-78
2024/04/01 03:33:29;;;;;;;1.83;0.70;;;8.50;99.90;;;;;;6202266;28;20057;-78
2024/04/01 03:36:30;;;;;;;1.80;0.60;;;8.50;99.90;;;;;;6195805;28;20054;-77
2024/04/01 03:39:30;;;;;;;3.35;0.90;;;8.50;99.90;;;;;;6207059;28;20073;-78
2024/04/01 03:42:34;;;;;;;1.63;0.68;;;8.40;99.90;;;;;;6218852;28;20832;-78
2024/04/01 03:45:35;;;;;;;2.00;0.73;;;8.40;99.90;;;;;;6203403;28;20136;-78
2024/04/01 03:48:36;;;;;;;1.65;0.70;;;8.40;99.90;;;;;;6195540;28;20061;-78
2024/04/01 03:51:37;;;;;;;2.05;0.88;;;8.40;99.90;;;;;;6218848;28;20148;-78
2024/04/01 03:54:38;;;;;;;2.17;0.70;;;8.40;99.90;;;;;;6195488;28;20050;-78
2024/04/01 03:57:38;;;;;;;2.05;0.90;;;8.40;99.90;;;;;;6218179;28;20471;-78
2024/04/01 04:00:39;;;;;;;1.42;0.63;;;8.50;99.90;;;;;;6177702;28;20062;-79
2024/04/01 04:03:42;;;;;;;2.78;0.70;;;8.60;99.90;;;;;;6218099;28;20115;-78
2024/04/01 04:06:42;;;;;;;2.15;0.80;;;8.60;99.90;;;;;;6192368;28;20108;-77
2024/04/01 04:09:43;;;;;;;3.20;0.90;;;8.70;99.90;;;;;;6194165;28;20485;-79
2024/04/01 04:12:43;;;;;;;1.80;0.85;;;8.70;99.90;;;;;;6201536;28;20111;-78
2024/04/01 04:15:44;;;;;;;3.38;0.93;;;8.80;99.90;;;;;;6173650;28;20050;-78
2024/04/01 04:18:45;;;;;;;2.35;0.82;;;8.80;99.90;;;;;;6218158;28;20068;-78
2024/04/01 04:21:45;;;;;;;2.95;1.00;;;8.80;99.90;;;;;;6178673;28;20585;-78
2024/04/01 04:24:46;;;;;;;2.40;1.10;;;8.80;99.90;;;;;;6217814;28;20054;-78
2024/04/01 04:27:50;;;;;;;2.67;1.10;;;8.90;99.90;;;;;;6177977;28;20061;-78
2024/04/01 04:30:51;;;;;;;2.58;1.10;;;8.80;99.90;;;;;;6207924;28;20065;-78
2024/04/01 04:33:52;;;;;;;2.50;1.02;;;8.80;99.90;;;;;;6194211;28;20094;-78
2024/04/01 04:36:52;;;;;;;3.97;1.35;;;8.80;99.90;;;;;;6201145;28;20053;-78
2024/04/01 04:39:53;;;;;;;3.50;1.38;;;8.80;99.90;;;;;;6194611;28;20062;-78
2024/04/01 04:42:54;;;;;;;4.03;1.30;;;8.70;99.90;;;;;;6217060;28;20422;-78
2024/04/01 04:45:54;;;;;;;2.90;1.23;;;8.70;99.90;;;;;;6167740;28;20068;-78
2024/04/01 04:48:55;;;;;;;3.45;1.17;;;8.70;99.90;;;;;;6201097;28;20061;-78
2024/04/01 04:51:56;;;;;;;4.93;1.00;;;8.60;99.90;;;;;;6194436;28;20462;-78
2024/04/01 04:54:56;;;;;;;6.43;1.20;;;8.60;99.90;;;;;;6201031;28;20057;-78
2024/04/01 04:57:57;;;;;;;3.97;0.93;;;8.60;99.90;;;;;;6177511;28;20532;-78
2024/04/01 05:00:58;;;;;;;6.22;1.20;;;8.50;99.90;;;;;;6192063;28;20058;-79
2024/04/01 05:03:58;;;;;;;6.88;1.27;;;8.40;99.90;;;;;;6170911;28;20062;-78
2024/04/01 05:06:59;;;;;;;5.20;1.02;;;8.40;99.90;;;;;;6206949;28;20054;-78
2024/04/01 05:09:59;;;;;;;3.83;1.15;;;8.30;99.90;;;;;;6222391;28;20050;-78
2024/04/01 05:13:00;;;;;;;3.15;0.80;;;8.20;99.90;;;;;;6199257;28;20065;-78
2024/04/01 05:16:03;;;;;;;4.22;1.13;;;8.10;99.90;;;;;;6209909;28;20061;-79
2024/04/01 05:19:07;;;;;;;4.70;0.90;;;8.10;99.90;;;;;;6174383;28;20772;-79
2024/04/01 05:22:07;;;;;;;4.25;0.93;;;8.00;99.90;;;;;;6222164;28;20054;-78
2024/04/01 05:25:08;;;;;;;6.00;1.20;;;8.00;99.90;;;;;;6198792;28;20092;-79
2024/04/01 05:28:10;;;;;;;6.82;1.08;;;7.90;99.90;;;;;;6218661;28;20089;-79
2024/04/01 05:31:10;;;;;;;6.47;1.00;;;7.90;99.90;;;;;;6171826;28;20081;-78
2024/04/01 05:34:12;;;;;;;5.05;1.00;;;7.80;99.90;;;;;;6181521;28;20058;-78
2024/04/01 05:37:13;;;;;;;6.40;1.00;;;7.70;99.90;;;;;;6221436;28;20429;-79
2024/04/01 05:40:13;;;;;;;3.22;0.90;;;7.70;99.90;;;;;;6198104;28;20061;-79
2024/04/01 05:43:14;;;;;;;4.05;0.85;;;7.70;99.90;;;;;;6202081;28;20078;-80
2024/04/01 05:46:16;;;;;;;5.50;1.00;;;7.60;99.90;;;;;;6197315;28;20058;-79
2024/04/01 05:49:17;;;;;;;5.13;0.90;;;7.50;99.90;;;;;;6205190;28;20084;-79
2024/04/01 05:52:17;;;;;;;4.38;1.00;;;7.50;99.90;;;;;;6198300;28;20054;-79
2024/04/01 05:55:18;;;;;;;4.07;1.00;;;7.40;99.90;;;;;;6203384;28;20058;-79
2024/04/01 05:58:19;;;;;;;5.95;0.90;;;7.40;99.90;;;;;;6185456;28;20429;-80
2024/04/01 06:01:19;;;;;;;4.70;0.90;;;7.30;99.90;;;;;;6221457;28;20057;-79
2024/04/01 06:04:20;;;;;;;3.58;0.93;;;7.40;99.90;;;;;;6197970;28;20062;-79
2024/04/01 06:07:20;;;;;;;3.25;1.00;;;7.40;99.90;;;;;;6220816;28;20421;-79
2024/04/01 06:10:21;;;;;;;6.13;0.90;;;7.40;99.90;;;;;;6198058;28;20584;-79
2024/04/01 06:13:22;;;;;;;4.75;1.10;;;7.40;99.90;;;;;;6206894;28;20065;-79
2024/04/01 06:16:22;;;;;;;6.38;1.10;;;7.50;99.90;;;;;;6181096;28;20069;-79
2024/04/01 06:19:23;;;;;;;5.95;1.10;;;7.50;99.90;;;;;;6197167;28;20058;-79
2024/04/01 06:22:23;;;;;;;3.30;1.00;;;7.50;99.90;;;;;;6220194;28;20394;-79
2024/04/01 06:25:24;;;;;;;5.75;1.00;;;7.60;99.90;;;;;;6197134;28;20058;-79
2024/04/01 06:28:25;;;;;;;3.70;1.10;;;7.60;99.90;;;;;;6210703;28;20054;-79
2024/04/01 06:31:25;;;;;;;7.47;1.23;;;7.70;99.90;;;;;;6196646;28;20414;-79
2024/04/01 06:34:26;;;;;;;7.05;1.30;;;7.90;99.90;;;;;;6180733;28;20066;-79
2024/04/01 06:37:26;;;;;;;5.07;0.88;;;8.20;99.90;;;;;;6220599;28;20061;-77
2024/04/01 06:40:27;;;;;;;6.22;0.90;;;8.60;99.90;;;;;;6197266;28;20124;-78
2024/04/01 06:43:28;;;;;;;4.45;1.02;;;9.30;99.90;;;;;;6210093;28;20133;-78
2024/04/01 06:46:29;;;;;;;5.40;0.80;;;10.50;99.90;;;;;;6196019;28;20117;-78
2024/04/01 06:49:29;;;;;;;4.50;0.82;;;11.80;99.90;;;;;;6203528;28;20149;-79
2024/04/01 06:52:30;;;;;;;4.13;0.70;;;13.20;95.70;;;;;;6196667;28;20498;-79
2024/04/01 06:55:31;;;;;;;4.15;0.82;;;13.70;31.10;;;;;;6200071;28;20061;-79
2024/04/01 06:58:32;;;;;;;4.47;0.85;;;14.40;12.20;;;;;;6184042;28;20057;-80
2024/04/01 07:01:32;;;;;;;3.28;0.88;;;14.60;1.00;;;;;;6219972;28;20054;-80
2024/04/01 07:04:33;;;;;;;2.28;0.80;;;14.80;1.00;;;;;;6196482;28;20062;-80
2024/04/01 07:07:35;;;;;;;5.65;0.90;;;14.80;1.00;;;;;;6203241;28;20054;-80
2024/04/01 07:10:36;;;;;;;4.88;1.00;;;14.70;1.00;;;;;;6180237;28;20750;-80
2024/04/01 07:13:36;;;;;;;6.10;0.93;;;15.00;1.00;;;;;;6208107;28;20050;-80
2024/04/01 07:16:37;;;;;;;3.50;0.75;;;15.40;1.00;;;;;;6179632;28;20076;-80
2024/04/01 07:19:37;;;;;;;6.72;0.93;;;15.40;1.00;;;;;;6202941;28;20062;-80
2024/04/01 07:22:38;;;;;;;5.38;1.17;;;15.80;1.00;;;;;;6195484;28;20081;-80
2024/04/01 07:25:39;;;;;;;3.13;0.85;;;15.50;1.00;;;;;;6219225;28;20054;-80
2024/04/01 07:28:39;;;;;;;3.38;0.70;;;15.70;1.00;;;;;;6196100;28;20464;-80
2024/04/01 07:31:42;;;;;;;4.53;1.00;;;15.30;1.00;;;;;;6219743;28;20482;-80
2024/04/01 07:34:42;;;;;;;3.58;0.80;;;15.40;1.00;;;;;;6196065;28;20068;-80
2024/04/01 07:37:43;;;;;;;2.45;0.75;;;15.10;1.00;;;;;;6202418;28;20050;-80
2024/04/01 07:40:43;;;;;;;4.78;0.85;;;15.40;1.00;;;;;;6197406;28;20058;-80
2024/04/01 07:43:44;;;;;;;5.65;0.90;;;15.70;1.00;;;;;;6185508;28;20133;-79
2024/04/01 07:46:45;;;;;;;4.50;1.00;;;15.60;1.00;;;;;;6194881;28;20097;-81
2024/04/01 07:49:46;;;;;;;4.97;1.08;;;16.20;1.00;;;;;;6218552;28;20060;-80
2024/04/01 07:52:47;;;;;;;5.85;1.00;;;16.30;1.00;;;;;;6195275;28;20070;-80
2024/04/01 07:55:48;;;;;;;3.40;0.90;;;16.20;1.00;;;;;;6195315;28;20054;-80
2024/04/01 07:58:48;;;;;;;2.63;0.90;;;16.40;1.00;;;;;;6196710;28;20536;-80
2024/04/01 08:01:49;;;;;;;3.10;0.75;;;16.40;1.00;;;;;;6202533;28;20088;-81
2024/04/01 08:04:50;;;;;;;3.05;0.90;;;17.00;1.00;;;;;;6195351;28;20139;-80
2024/04/01 08:07:51;;;;;;;4.65;0.95;;;16.80;1.00;;;;;;6201845;28;20100;-81
2024/04/01 08:10:52;;;;;;;2.53;0.70;;;16.50;1.00;;;;;;6196174;28;20531;-81
2024/04/01 08:13:52;;;;;;;3.88;1.00;;;16.60;1.00;;;;;;6204470;28;20058;-81
2024/04/01 08:16:53;;;;;;;5.47;1.02;;;16.40;1.00;;;;;;6217723;28;20140;-80
2024/04/01 08:19:54;;;;;;;2.65;0.80;;;16.40;1.00;;;;;;6194544;28;20054;-81
2024/04/01 08:22:55;;;;;;;2.63;0.85;;;16.80;1.00;;;;;;6217696;28;20060;-80
2024/04/01 08:25:55;;;;;;;2.08;0.70;;;16.10;1.00;;;;;;6195427;28;20462;-80
2024/04/01 08:28:56;;;;;;;3.50;0.80;;;15.60;1.00;;;;;;6187664;28;20100;-80
2024/04/01 08:31:57;;;;;;;4.55;0.90;;;16.00;1.00;;;;;;6201548;28;20064;-81
2024/04/01 08:34:59;;;;;;;2.67;0.90;;;16.60;1.00;;;;;;6195266;28;20064;-80
2024/04/01 08:37:59;;;;;;;6.13;0.90;;;16.90;1.00;;;;;;6217193;28;20639;-80
2024/04/01 08:41:00;;;;;;;2.70;0.80;;;17.50;1.00;;;;;;6195618;28;20094;-81
2024/04/01 08:44:02;;;;;;;3.92;0.88;;;17.80;1.00;;;;;;6177168;28;20066;-80
2024/04/01 08:47:02;;;;;;;2.97;0.90;;;17.00;1.00;;;;;;6193802;28;20062;-80
2024/04/01 08:50:04;;;;;;;4.80;0.70;;;15.70;1.00;;;;;;6216850;28;20112;-79
2024/04/01 08:53:06;;;;;;;5.85;1.10;;;15.60;1.00;;;;;;6194135;28;20054;-79
2024/04/01 08:56:07;;;;;;;2.47;0.93;;;15.70;1.00;;;;;;6192462;28;20058;-80
2024/04/01 08:59:08;;;;;;;4.55;0.80;;;16.50;1.00;;;;;;6203209;28;20046;-80
2024/04/01 09:02:09;;;;;;;4.38;1.02;;;17.00;1.00;;;;;;6177687;28;20464;-80
2024/04/01 09:05:10;;;;;;;3.13;0.70;;;16.90;1.00;;;;;;6217279;28;20148;-81
2024/04/01 09:08:11;;;;;;;2.95;0.70;;;17.10;1.00;;;;;;6178161;28;20062;-80
2024/04/01 09:11:11;;;;;;;3.45;0.80;;;16.50;1.00;;;;;;6200438;28;20057;-80
2024/04/01 09:14:12;;;;;;;3.70;0.90;;;16.90;1.00;;;;;;6182938;28;20058;-79
2024/04/01 09:17:13;;;;;;;2.47;0.70;;;18.00;1.00;;;;;;6193579;28;20148;-79
2024/04/01 09:20:14;;;;;;;6.57;1.38;;;18.80;1.00;;;;;;6216497;28;20488;-79
2024/04/01 09:23:15;;;;;;;3.67;0.90;;;19.50;1.00;;;;;;6177431;28;20168;-78
2024/04/01 09:26:15;;;;;;;4.78;0.90;;;18.60;1.00;;;;;;6200475;28;20647;-79
2024/04/01 09:29:16;;;;;;;5.25;0.85;;;17.70;1.00;;;;;;6199484;28;20049;-77
2024/04/01 09:32:17;;;;;;;4.10;1.02;;;16.80;1.00;;;;;;6193892;28;20174;-80
2024/04/01 09:35:18;;;;;;;2.92;0.82;;;16.30;1.00;;;;;;6217636;28;20062;-80
2024/04/01 09:38:18;;;;;;;3.33;0.93;;;16.30;1.00;;;;;;6194607;28;20506;-80
2024/04/01 09:41:19;;;;;;;5.38;1.27;;;16.20;1.00;;;;;;6217646;28;20046;-80
2024/04/01 09:44:21;;;;;;;4.50;1.23;;;16.80;1.00;;;;;;6184611;28;20066;-81
2024/04/01 09:47:22;;;;;;;4.57;0.70;;;17.40;1.00;;;;;;6193675;28;20159;-79
2024/04/01 09:50:23;;;;;;;2.40;0.73;;;18.40;1.00;;;;;;6218714;28;20084;-79
2024/04/01 09:53:24;;;;;;;3.17;0.82;;;19.30;1.00;;;;;;6195818;28;20136;-79
2024/04/01 09:56:25;;;;;;;4.90;0.80;;;20.30;1.00;;;;;;6197311;28;20060;-79
2024/04/01 09:59:26;;;;;;;2.10;0.95;;;20.70;1.00;;;;;;6181157;28;20256;-79
2024/04/01 10:02:26;;;;;;;3.85;0.70;;;19.20;1.00;;;;;;6220364;28;20053;-80
2024/04/01 10:05:27;;;;;;;3.30;0.90;;;18.30;1.00;;;;;;6198058;28;20058;-79
2024/04/01 10:08:28;;;;;;;3.97;0.90;;;17.60;1.00;;;;;;6220606;28;20070;-80
2024/04/01 10:11:29;;;;;;;3.75;0.90;;;18.20;1.00;;;;;;6181414;28;20101;-81
2024/04/01 10:14:29;;;;;;;4.15;0.90;;;19.10;1.00;;;;;;6205736;28;20058;-80
2024/04/01 10:17:30;;;;;;;5.20;0.75;;;19.70;1.00;;;;;;6220354;28;20058;-80
2024/04/01 10:20:31;;;;;;;1.98;0.70;;;20.10;1.00;;;;;;6180807;28;20433;-79
2024/04/01 10:23:32;;;;;;;3.92;0.88;;;19.10;1.00;;;;;;6204301;28;20092;-79
2024/04/01 10:26:32;;;;;;;4.63;1.00;;;18.00;1.00;;;;;;6197065;28;20065;-79
2024/04/01 10:29:33;;;;;;;4.60;0.98;;;18.10;1.00;;;;;;6200482;28;20050;-80
2024/04/01 10:32:34;;;;;;;6.10;0.80;;;17.80;1.00;;;;;;6219645;28;20132;-79
2024/04/01 10:35:34;;;;;;;4.82;1.00;;;17.70;1.00;;;;;;6180910;28;20058;-79
2024/04/01 10:38:37;;;;;;;2.50;1.00;;;17.60;1.00;;;;;;6220393;28;20050;-80
2024/04/01 10:41:38;;;;;;;3.25;0.60;;;18.50;1.00;;;;;;6196080;28;20521;-79
2024/04/01 10:44:38;;;;;;;3.80;0.80;;;19.30;1.00;;;;;;6189278;28;20141;-79
2024/04/01 10:47:39;;;;;;;5.40;1.20;;;19.30;1.00;;;;;;6219838;28;20067;-79
2024/04/01 10:50:40;;;;;;;3.15;0.70;;;20.80;1.00;;;;;;6196447;28;20130;-79
2024/04/01 10:53:40;;;;;;;3.08;0.75;;;21.00;1.00;;;;;;6218007;28;20492;-78
2024/04/01 10:56:41;;;;;;;3.55;1.00;;;19.90;1.00;;;;;;6220640;28;20085;-78
2024/04/01 10:59:42;;;;;;;4.68;0.95;;;19.10;1.00;;;;;;6206231;28;20061;-78
2024/04/01 11:02:43;;;;;;;5.68;1.00;;;19.20;1.00;;;;;;6194940;28;20129;-78
2024/04/01 11:05:43;;;;;;;2.53;0.90;;;18.90;1.00;;;;;;6219210;28;20247;-78
2024/04/01 11:08:44;;;;;;;3.60;0.73;;;18.10;1.00;;;;;;6195661;28;20065;-77
2024/04/01 11:11:44;;;;;;;3.08;0.75;;;17.40;1.00;;;;;;6218733;28;20493;-77
2024/04/01 11:14:45;;;;;;;4.65;1.02;;;17.20;1.00;;;;;;6185805;28;20058;-80
2024/04/01 11:17:46;;;;;;;6.60;1.05;;;16.70;1.00;;;;;;6218980;28;20124;-78
2024/04/01 11:20:47;;;;;;;6.63;1.02;;;16.50;1.00;;;;;;6195621;28;20085;-77
2024/04/01 11:23:47;;;;;;;10.48;1.27;;;16.40;1.00;;;;;;6202365;28;20076;-77
2024/04/01 11:26:48;;;;;;;4.65;1.20;;;16.00;1.00;;;;;;6195709;28;20137;-78
2024/04/01 11:29:49;;;;;;;6.32;1.15;;;16.00;1.00;;;;;;6213217;28;20056;-77
2024/04/01 11:32:49;;;;;;;3.60;1.00;;;15.90;1.00;;;;;;6195634;28;20128;-77
2024/04/01 11:35:50;;;;;;;3.30;0.80;;;15.50;1.00;;;;;;6201739;28;20482;-77
2024/04/01 11:38:51;;;;;;;3.50;0.80;;;15.50;1.00;;;;;;6194953;28;20133;-77
2024/04/01 11:41:51;;;;;;;3.03;0.77;;;16.50;1.00;;;;;;6218335;28;20053;-77
2024/04/01 11:44:52;;;;;;;4.05;0.85;;;17.10;1.00;;;;;;6198766;28;20057;-77
2024/04/01 11:47:53;;;;;;;2.33;0.70;;;17.20;1.00;;;;;;6195252;28;20441;-77
2024/04/01 11:50:53;;;;;;;3.92;0.90;;;16.60;1.00;;;;;;6218009;28;20054;-78
2024/04/01 11:53:54;;;;;;;4.60;0.82;;;16.40;1.00;;;;;;6193903;28;20063;-77
2024/04/01 11:56:54;;;;;;;3.38;1.00;;;16.20;1.00;;;;;;6194956;28;20391;-78
2024/04/01 11:59:55;;;;;;;2.00;0.70;;;16.40;1.00;;;;;;6196557;28;20394;-78
2024/04/01 12:02:56;;;;;;;4.97;0.80;;;16.50;1.00;;;;;;6195525;28;20077;-78
2024/04/01 12:05:56;;;;;;;2.33;0.70;;;16.70;1.00;;;;;;6218057;28;20058;-78
2024/04/01 12:08:57;;;;;;;3.63;1.20;;;16.60;1.00;;;;;;6194652;28;20453;-78
2024/04/01 12:11:58;;;;;;;3.92;0.95;;;15.80;1.00;;;;;;6200934;28;20058;-78
2024/04/01 12:14:58;;;;;;;3.63;0.70;;;16.00;1.00;;;;;;6189078;28;20065;-78
2024/04/01 12:17:59;;;;;;;4.45;0.85;;;15.90;1.00;;;;;;6217721;28;20049;-78
2024/04/01 12:21:00;;;;;;;4.78;0.80;;;16.00;1.00;;;;;;6194705;28;20050;-78
2024/04/01 12:24:00;;;;;;;4.13;0.90;;;16.10;1.00;;;;;;6217359;28;20523;-79
2024/04/01 12:27:01;;;;;;;5.43;0.80;;;16.00;1.00;;;;;;6193847;28;20058;-78
2024/04/01 12:30:02;;;;;;;2.83;0.77;;;16.10;1.00;;;;;;6216957;28;20053;-78
2024/04/01 12:33:03;;;;;;;4.35;0.85;;;15.70;1.00;;;;;;6194308;28;20050;-78
2024/04/01 12:36:04;;;;;;;2.72;0.75;;;15.60;1.00;;;;;;6217423;28;20216;-77
2024/04/01 12:39:04;;;;;;;2.58;0.70;;;15.00;1.00;;;;;;6178048;28;20055;-80
2024/04/01 12:42:05;;;;;;;2.15;0.70;;;15.20;1.00;;;;;;6217102;28;20053;-78
2024/04/01 12:45:05;;;;;;;1.60;0.65;;;15.70;1.00;;;;;;6199112;28;20054;-77
2024/04/01 12:48:06;;;;;;;2.33;0.90;;;15.90;1.00;;;;;;6193846;28;20054;-78
2024/04/01 12:51:07;;;;;;;2.63;0.88;;;15.90;1.00;;;;;;6217434;28;20053;-77
2024/04/01 12:54:07;;;;;;;3.10;1.17;;;15.90;1.00;;;;;;6192559;28;20481;-78
2024/04/01 12:57:08;;;;;;;2.38;0.60;;;16.10;1.00;;;;;;6193320;28;20056;-78
2024/04/01 13:00:09;;;;;;;2.90;0.70;;;15.90;1.00;;;;;;6195135;28;20073;-77
2024/04/01 13:03:09;;;;;;;3.20;0.93;;;15.40;1.00;;;;;;6177100;28;20429;-77
2024/04/01 13:06:10;;;;;;;3.38;0.90;;;15.00;1.00;;;;;;6200041;28;20062;-77
2024/04/01 13:09:11;;;;;;;2.90;0.75;;;14.50;1.00;;;;;;6177443;28;20062;-77
2024/04/01 13:12:11;;;;;;;2.58;0.98;;;14.10;1.00;;;;;;6215314;28;20406;-77
2024/04/01 13:15:12;;;;;;;5.70;1.10;;;14.00;1.00;;;;;;6183703;28;20060;-76
2024/04/01 13:18:12;;;;;;;4.40;1.20;;;13.50;23.80;;;;;;6216556;28;20052;-76
2024/04/01 13:21:13;;;;;;;3.78;1.05;;;13.00;76.40;;;;;;6177594;28;20069;-76
2024/04/01 13:24:14;;;;;;;3.90;0.82;;;12.80;91.40;;;;;;6200067;28;20801;-76
2024/04/01 13:27:14;;;;;;;5.07;1.00;;;12.90;95.50;;;;;;6198191;28;20069;-76
2024/04/01 13:30:15;;;;;;;2.88;0.77;;;12.90;92.50;;;;;;6211025;28;20050;-76
2024/04/01 13:33:16;;;;;;;2.63;0.70;;;13.20;94.10;;;;;;6182064;28;20058;-76
2024/04/01 13:36:16;;;;;;;2.55;0.90;;;13.70;91.80;;;;;;6221135;28;20049;-77
2024/04/01 13:39:17;;;;;;;2.83;0.90;;;14.10;77.40;;;;;;6181830;28;20054;-77
2024/04/01 13:42:18;;;;;;;2.88;0.85;;;14.00;80.70;;;;;;6221170;28;20053;-77
2024/04/01 13:45:18;;;;;;;1.88;0.75;;;13.70;45.30;;;;;;6209665;28;20070;-76
2024/04/01 13:48:19;;;;;;;2.80;0.95;;;13.60;45.60;;;;;;6197719;28;20058;-77
2024/04/01 13:51:19;;;;;;;2.42;0.63;;;13.60;37.20;;;;;;6221122;28;20075;-76
2024/04/01 13:54:20;;;;;;;1.52;0.70;;;13.60;34.60;;;;;;6195929;28;20112;-77
2024/04/01 13:57:21;;;;;;;3.50;0.93;;;13.80;22.40;;;;;;6220342;28;20560;-77
2024/04/01 14:00:22;;;;;;;3.15;0.70;;;14.40;26.50;;;;;;6187451;28;20054;-77
2024/04/01 14:03:22;;;;;;;2.55;0.75;;;15.10;1.00;;;;;;6220951;28;20053;-77
2024/04/01 14:06:24;;;;;;;1.98;0.63;;;15.30;1.00;;;;;;6197808;28;20068;-76
2024/04/01 14:09:24;;;;;;;2.30;0.70;;;15.10;1.00;;;;;;6220395;28;20421;-77
2024/04/01 14:12:25;;;;;;;2.50;0.70;;;14.80;1.00;;;;;;6197922;28;20054;-77
2024/04/01 14:15:26;;;;;;;2.50;0.80;;;15.10;1.00;;;;;;6220508;28;20060;-78
2024/04/01 14:18:26;;;;;;;2.42;0.70;;;15.10;1.00;;;;;;6198113;28;20421;-77
2024/04/01 14:21:27;;;;;;;3.20;0.80;;;15.20;1.00;;;;;;6203690;28;20065;-77
2024/04/01 14:24:27;;;;;;;2.53;0.75;;;15.80;1.00;;;;;;6197771;28;20058;-77
2024/04/01 14:27:28;;;;;;;2.97;0.80;;;16.30;1.00;;;;;;6203522;28;20513;-77
2024/04/01 14:30:29;;;;;;;2.00;0.70;;;16.40;1.00;;;;;;6191570;28;20134;-77
2024/04/01 14:33:29;;;;;;;2.08;0.60;;;16.40;1.00;;;;;;6220058;28;20061;-78
2024/04/01 14:36:30;;;;;;;1.83;0.50;;;16.30;1.00;;;;;;6196268;28;20424;-78
2024/04/01 14:39:30;;;;;;;2.67;0.77;;;16.10;1.00;;;;;;6219810;28;20072;-79
2024/04/01 14:42:31;;;;;;;1.23;0.47;;;15.90;1.00;;;;;;6197448;28;20072;-78
2024/04/01 14:45:32;;;;;;;2.90;0.60;;;15.80;1.00;;;;;;6199954;28;20058;-77
2024/04/01 14:48:33;;;;;;;3.08;0.77;;;15.30;1.00;;;;;;6219481;28;20053;-77
2024/04/01 14:51:33;;;;;;;2.42;0.70;;;15.40;1.00;;;;;;6196854;28;20069;-77
2024/04/01 14:54:34;;;;;;;3.35;0.80;;;15.60;1.00;;;;;;6217789;28;20058;-77
2024/04/01 14:57:35;;;;;;;3.75;0.90;;;15.30;1.00;;;;;;6196585;28;20396;-78
2024/04/01 15:00:36;;;;;;;2.75;0.75;;;15.80;1.00;;;;;;6188111;28;20073;-78
2024/04/01 15:03:37;;;;;;;4.75;0.90;;;16.20;1.00;;;;;;6196678;28;20054;-78
2024/04/01 15:06:38;;;;;;;3.42;0.80;;;16.60;1.00;;;;;;6218854;28;20053;-77
2024/04/01 15:09:39;;;;;;;4.32;1.05;;;16.70;1.00;;;;;;6179986;28;20058;-77
2024/04/01 15:12:39;;;;;;;5.78;0.98;;;16.10;1.00;;;;;;6203172;28;20054;-77
2024/04/01 15:15:40;;;;;;;5.45;1.20;;;15.50;1.00;;;;;;6190709;28;20426;-77
2024/04/01 15:18:41;;;;;;;3.45;1.08;;;14.90;1.00;;;;;;6219244;28;20531;-77
2024/04/01 15:21:42;;;;;;;6.53;1.27;;;14.60;1.00;;;;;;6195320;28;20085;-79
2024/04/01 15:24:42;;;;;;;4.30;1.05;;;14.80;1.00;;;;;;6218513;28;20054;-79
2024/04/01 15:27:43;;;;;;;4.30;1.20;;;15.40;8.30;;;;;;6195606;28;20058;-79
2024/04/01 15:30:44;;;;;;;4.28;1.15;;;15.10;1.00;;;;;;6197588;28;20061;-79
2024/04/01 15:33:44;;;;;;;3.90;1.20;;;14.90;1.00;;;;;;6172191;28;20065;-78
2024/04/01 15:36:45;;;;;;;7.95;1.30;;;14.60;5.00;;;;;;6218666;28;20054;-78
2024/04/01 15:39:46;;;;;;;3.63;0.85;;;14.60;1.00;;;;;;6196004;28;20054;-78
2024/04/01 15:42:46;;;;;;;4.53;0.80;;;14.40;1.00;;;;;;6218656;28;20061;-78
2024/04/01 15:45:47;;;;;;;5.28;1.00;;;14.00;1.00;;;;;;6182460;28;20058;-78
2024/04/01 15:48:48;;;;;;;6.40;1.13;;;14.00;1.00;;;;;;6177675;28;20065;-78
2024/04/01 15:51:48;;;;;;;4.72;1.13;;;14.20;37.90;;;;;;6218078;28;20136;-78